createdAt,value
2018-04-24T06:05:51.830Z,16192.00
2018-04-24T06:06:50.023Z,17376.00
2018-04-24T06:07:50.237Z,17216.00
2018-04-24T06:08:50.470Z,16416.00
2018-04-24T06:09:50.583Z,15680.00
2018-04-24T06:10:50.799Z,15488.00
2018-04-24T06:11:52.835Z,15520.00
2018-04-24T06:12:52.832Z,15904.00
2018-04-24T06:13:51.306Z,15296.00
2018-04-24T06:14:53.326Z,13140.00
2018-04-24T06:15:51.671Z,15488.00
2018-04-24T06:16:51.888Z,15936.00
2018-04-24T06:17:52.101Z,16320.00
2018-04-24T06:18:54.863Z,17344.00
2018-04-24T06:19:54.350Z,17824.00
2018-04-24T06:20:52.695Z,17376.00
2018-04-24T06:21:52.917Z,16640.00
2018-04-24T06:22:53.138Z,19520.00
2018-04-24T06:23:53.343Z,19936.00
2018-04-24T06:24:55.350Z,18976.00
2018-04-24T06:25:53.785Z,21600.00
2018-04-24T06:26:53.999Z,23552.00
2018-04-24T06:27:54.237Z,22208.00
2018-04-24T06:28:54.445Z,22624.00
2018-04-24T06:29:56.328Z,22976.00
2018-04-24T06:30:54.787Z,23072.00
2018-04-24T06:31:56.828Z,24288.00
2018-04-24T06:32:55.198Z,23072.00
2018-04-24T06:33:55.297Z,23392.00
2018-04-24T06:34:55.517Z,25024.00
2018-04-24T06:35:55.774Z,25472.00
2018-04-24T06:36:57.832Z,28128.00
2018-04-24T06:37:56.174Z,28928.00
2018-04-24T06:38:56.390Z,27392.00
2018-04-24T06:39:56.605Z,27296.00
2018-04-24T06:40:56.830Z,23936.00
2018-04-24T06:41:57.041Z,22304.00
2018-04-24T06:42:57.261Z,20448.00
2018-04-24T06:43:57.480Z,20512.00
2018-04-24T06:44:57.696Z,20128.00
2018-04-24T06:45:57.914Z,20544.00
2018-04-24T06:46:58.134Z,20224.00
2018-04-24T06:48:00.332Z,19136.00
2018-04-24T06:48:58.550Z,19648.00
2018-04-24T06:49:58.766Z,19360.00
2018-04-24T06:50:58.977Z,18592.00
2018-04-24T06:51:59.211Z,18816.00
2018-04-24T06:52:59.307Z,18080.00
2018-04-24T06:53:59.517Z,17568.00
2018-04-24T06:54:59.821Z,16416.00
2018-04-24T06:55:59.957Z,15840.00
2018-04-24T06:57:00.271Z,16128.00
2018-04-24T06:58:00.311Z,16064.00
2018-04-24T06:59:00.526Z,15648.00
2018-04-24T07:00:00.765Z,14720.00
2018-04-24T07:01:00.985Z,14860.00
2018-04-24T07:02:01.204Z,15776.00
2018-04-24T07:03:01.425Z,16480.00
2018-04-24T07:04:01.633Z,16320.00
2018-04-24T07:05:01.848Z,17216.00
2018-04-24T07:06:02.081Z,18240.00
2018-04-24T07:07:03.734Z,19264.00
2018-04-24T07:08:02.444Z,19872.00
2018-04-24T07:09:02.648Z,21056.00
2018-04-24T07:10:02.867Z,21888.00
2018-04-24T07:11:03.101Z,23040.00
2018-04-24T07:12:06.834Z,23968.00
2018-04-24T07:13:03.543Z,26624.00
2018-04-24T07:16:14.508Z,28800.00
2018-04-24T07:17:12.965Z,27296.00
2018-04-24T07:18:13.185Z,24416.00
2018-04-24T07:19:13.392Z,24224.00
2018-04-24T07:20:13.603Z,25952.00
2018-04-24T07:21:13.820Z,28192.00
2018-04-24T07:22:14.093Z,28928.00
2018-04-24T07:23:14.316Z,29312.00
2018-04-24T07:24:14.454Z,29696.00
2018-04-24T07:25:16.522Z,31808.00
2018-04-24T07:26:16.514Z,30560.00
2018-04-24T07:27:16.307Z,29248.00
2018-04-24T07:28:15.257Z,34336.00
2018-04-24T07:29:15.472Z,38528.00
2018-04-24T07:30:18.789Z,37504.00
2018-04-24T07:31:17.501Z,42208.00
2018-04-24T07:32:16.094Z,37760.00
2018-04-24T07:33:18.000Z,37760.00
2018-04-24T07:34:18.040Z,39648.00
2018-04-24T07:35:16.593Z,39392.00
2018-04-24T07:36:16.822Z,40192.00
2018-04-24T07:37:17.047Z,44128.00
2018-04-24T07:38:17.264Z,48288.00
2018-04-24T07:39:18.482Z,52032.00
2018-04-24T07:40:17.706Z,51296.00
2018-04-24T07:41:18.950Z,50784.00
2018-04-24T07:42:18.135Z,49952.00
2018-04-24T07:43:20.018Z,46272.00
2018-04-24T07:44:18.487Z,39264.00
2018-04-24T07:45:18.707Z,39072.00
2018-04-24T07:46:18.910Z,42752.00
2018-04-24T07:47:21.004Z,45792.00
2018-04-24T07:48:19.354Z,43648.00
2018-04-24T07:49:22.498Z,45696.00
2018-04-24T07:50:21.509Z,42400.00
2018-04-24T07:51:19.853Z,41792.00
2018-04-24T07:52:20.101Z,42400.00
2018-04-24T07:53:22.018Z,41216.00
2018-04-24T07:54:20.379Z,40256.00
2018-04-24T07:55:24.517Z,42240.00
2018-04-24T07:56:22.516Z,41440.00
2018-04-24T07:57:21.910Z,43104.00
2018-04-24T07:58:23.009Z,43648.00
2018-04-24T07:59:22.317Z,44736.00
2018-04-24T08:00:21.465Z,46656.00
2018-04-24T08:01:23.511Z,48864.00
2018-04-24T08:02:21.913Z,46592.00
2018-04-24T08:03:22.083Z,49696.00
2018-04-24T08:04:22.306Z,51520.00
2018-04-24T08:05:23.521Z,48832.00
2018-04-24T08:06:24.506Z,38400.00
2018-04-24T08:07:23.034Z,44672.00
2018-04-24T08:08:26.014Z,47168.00
2018-04-24T08:09:25.021Z,47488.00
2018-04-24T08:10:29.045Z,49824.00
2018-04-24T08:11:24.664Z,49696.00
2018-04-24T08:12:25.521Z,50112.00
2018-04-24T08:13:28.024Z,52224.00
2018-04-24T08:14:49.043Z,52064.00
2018-04-24T08:15:26.065Z,52352.00
2018-04-24T08:16:40.515Z,50816.00
2018-04-24T08:17:26.510Z,57248.00
2018-04-24T08:18:27.508Z,60544.00
2018-04-24T08:19:27.532Z,62272.00
2018-04-24T08:20:33.015Z,55648.00
2018-04-24T08:21:25.365Z,60096.00
2018-04-24T08:22:29.107Z,56224.00
2018-04-24T08:23:30.753Z,58816.00
2018-04-24T08:24:27.531Z,66624.00
2018-04-24T08:25:26.436Z,66432.00
2018-04-24T08:26:29.494Z,66720.00
2018-04-24T08:27:29.565Z,68992.00
2018-04-24T08:28:30.522Z,66496.00
2018-04-24T08:29:33.521Z,72736.00
2018-04-24T08:30:29.561Z,62592.00
2018-04-24T08:31:27.169Z,60608.00
2018-04-24T08:32:29.010Z,54208.00
2018-04-24T08:33:30.028Z,46176.00
2018-04-24T08:34:29.515Z,47808.00
2018-04-24T08:35:30.536Z,41984.00
2018-04-24T08:36:32.014Z,58112.00
2018-04-24T08:37:34.221Z,58048.00
2018-04-24T08:38:30.011Z,61024.00
2018-04-24T08:39:28.611Z,63168.00
2018-04-24T08:40:28.848Z,63232.00
2018-04-24T08:41:30.517Z,56928.00
2018-04-24T08:42:31.043Z,55008.00
2018-04-24T08:43:29.282Z,49760.00
2018-04-24T08:44:29.518Z,52832.00
2018-04-24T08:45:30.749Z,60352.00
2018-04-24T08:46:31.509Z,60704.00
2018-04-24T08:47:32.045Z,59872.00
2018-04-24T08:48:32.019Z,67040.00
2018-04-24T08:49:30.673Z,58016.00
2018-04-24T08:50:34.523Z,46528.00
2018-04-24T08:51:32.026Z,39328.00
2018-04-24T08:52:32.183Z,37728.00
2018-04-24T08:53:33.017Z,32800.00
2018-04-24T08:54:32.512Z,28000.00
2018-04-24T08:55:31.735Z,25088.00
2018-04-24T08:56:33.505Z,28960.00
2018-04-24T08:57:32.978Z,44032.00
2018-04-24T08:58:36.008Z,42464.00
2018-04-24T08:59:32.374Z,37856.00
2018-04-24T09:00:36.621Z,44288.00
2018-04-24T09:01:34.521Z,47520.00
2018-04-24T09:02:34.645Z,41792.00
2018-04-24T09:03:34.072Z,43488.00
2018-04-24T09:04:36.705Z,49056.00
2018-04-24T09:05:33.609Z,52992.00
2018-04-24T09:06:34.753Z,43520.00
2018-04-24T09:07:49.512Z,42432.00
2018-04-24T09:08:35.229Z,78048.00
2018-04-24T09:09:36.015Z,37216.00
2018-04-24T09:10:40.024Z,36768.00
2018-04-24T09:11:34.653Z,39072.00
2018-04-24T09:12:34.844Z,36032.00
2018-04-24T09:13:38.524Z,71328.00
2018-04-24T09:14:35.183Z,74464.00
2018-04-24T09:15:38.057Z,78656.00
2018-04-24T09:16:35.424Z,66400.00
2018-04-24T09:17:43.523Z,61888.00
2018-04-24T09:18:39.533Z,60512.00
2018-04-24T09:19:39.005Z,55680.00
2018-04-24T09:20:40.032Z,57376.00
2018-04-24T09:21:47.026Z,61632.00
2018-04-24T09:22:39.505Z,66848.00
2018-04-24T09:23:37.801Z,72992.00
2018-04-24T09:24:36.938Z,70016.00
2018-04-24T09:25:39.010Z,65856.00
2018-04-24T09:26:39.024Z,65312.00
2018-04-24T09:27:39.013Z,66720.00
2018-04-24T09:28:41.525Z,70080.00
2018-04-24T09:29:40.539Z,57312.00
2018-04-24T09:30:38.492Z,47104.00
2018-04-24T09:31:38.992Z,37504.00
2018-04-24T09:32:40.009Z,33984.00
2018-04-24T09:33:46.050Z,35296.00
2018-04-24T09:34:38.618Z,35008.00
2018-04-24T09:35:39.855Z,51360.00
2018-04-24T09:37:00.100Z,47584.00
2018-04-24T09:37:39.205Z,70752.00
2018-04-24T09:38:41.016Z,62688.00
2018-04-24T09:39:41.515Z,27968.00
2018-04-24T09:40:42.473Z,23872.00
2018-04-24T09:41:41.121Z,29408.00
2018-04-24T09:42:42.028Z,29696.00
2018-04-24T09:43:40.389Z,27328.00
2018-04-24T09:45:09.652Z,25664.00
2018-04-24T09:45:42.204Z,24832.00
2018-04-24T09:46:41.225Z,25088.00
2018-04-24T09:47:43.075Z,24736.00
2018-04-24T09:48:41.481Z,24992.00
2018-04-24T09:49:41.655Z,26496.00
2018-04-24T09:50:41.983Z,27616.00
2018-04-24T09:51:42.078Z,29440.00
2018-04-24T09:52:42.219Z,32608.00
2018-04-24T09:53:44.046Z,32640.00
2018-04-24T09:54:44.523Z,30240.00
2018-04-24T09:55:44.698Z,30240.00
2018-04-24T09:56:43.269Z,32928.00
2018-04-24T09:57:44.231Z,30752.00
2018-04-24T09:58:46.039Z,30880.00
2018-04-24T09:59:43.632Z,32800.00
2018-04-24T10:00:43.857Z,32800.00
2018-04-24T10:01:48.019Z,29344.00
2018-04-24T10:02:44.246Z,26592.00
2018-04-24T10:03:46.019Z,25184.00
2018-04-24T10:04:46.520Z,24736.00
2018-04-24T10:05:44.774Z,28192.00
2018-04-24T10:06:44.978Z,32448.00
2018-04-24T10:07:45.258Z,28096.00
2018-04-24T10:08:45.429Z,27392.00
2018-04-24T10:09:45.649Z,28896.00
2018-04-24T10:10:45.868Z,29792.00
2018-04-24T10:11:48.022Z,29952.00
2018-04-24T10:12:46.287Z,26464.00
2018-04-24T10:13:46.492Z,24064.00
2018-04-24T10:14:50.515Z,23936.00
2018-04-24T10:15:46.861Z,25184.00
2018-04-24T10:16:47.085Z,27200.00
2018-04-24T10:17:49.015Z,27520.00
2018-04-24T10:18:47.501Z,26240.00
2018-04-24T10:19:49.626Z,26016.00
2018-04-24T10:20:47.898Z,27296.00
2018-04-24T10:21:48.111Z,29856.00
2018-04-24T10:22:48.336Z,29056.00
2018-04-24T10:23:48.573Z,26624.00
2018-04-24T10:24:48.789Z,25504.00
2018-04-24T10:25:49.018Z,25248.00
2018-04-24T10:26:49.238Z,25152.00
2018-04-24T10:27:50.470Z,25312.00
2018-04-24T10:28:49.693Z,25344.00
2018-04-24T10:29:49.921Z,25152.00
2018-04-24T10:30:50.152Z,25632.00
2018-04-24T10:31:50.375Z,25632.00
2018-04-24T10:32:50.590Z,25952.00
2018-04-24T10:33:50.814Z,26752.00
2018-04-24T10:34:51.032Z,26592.00
2018-04-24T10:35:53.027Z,28032.00
2018-04-24T10:36:53.035Z,32512.00
2018-04-24T10:37:51.621Z,30208.00
2018-04-24T10:38:51.859Z,28288.00
2018-04-24T10:39:54.032Z,25920.00
2018-04-24T10:40:52.247Z,27008.00
2018-04-24T10:41:52.518Z,27968.00
2018-04-24T10:42:52.689Z,28768.00
2018-04-24T10:43:52.977Z,28128.00
2018-04-24T10:44:53.155Z,32640.00
2018-04-24T10:45:53.372Z,27616.00
2018-04-24T10:46:55.537Z,41184.00
2018-04-24T10:47:53.764Z,42592.00
2018-04-24T10:48:55.533Z,60192.00
2018-04-24T10:49:56.020Z,54752.00
2018-04-24T10:50:54.397Z,67840.00
2018-04-24T10:51:56.080Z,76096.00
2018-04-24T10:52:54.747Z,79264.00
2018-04-24T10:53:55.961Z,72320.00
2018-04-24T10:54:59.061Z,68352.00
2018-04-24T10:55:57.037Z,78368.00
2018-04-24T10:56:57.530Z,57536.00
2018-04-24T10:57:56.779Z,33696.00
2018-04-24T10:58:55.894Z,38976.00
2018-04-24T11:00:00.060Z,47840.00
2018-04-24T11:00:59.034Z,58944.00
2018-04-24T11:01:58.032Z,34880.00
2018-04-24T11:02:58.020Z,31520.00
2018-04-24T11:03:58.552Z,45664.00
2018-04-24T11:04:58.525Z,51104.00
2018-04-24T11:06:12.539Z,51104.00
2018-04-24T11:06:59.040Z,51296.00
2018-04-24T11:07:57.250Z,37184.00
2018-04-24T11:08:58.521Z,43680.00
2018-04-24T11:09:58.607Z,48672.00
2018-04-24T11:11:00.588Z,47840.00
2018-04-24T11:11:59.112Z,43744.00
2018-04-24T11:13:02.041Z,24832.00
2018-04-24T11:14:00.022Z,21920.00
2018-04-24T11:14:58.636Z,18240.00
2018-04-24T11:15:59.876Z,17568.00
2018-04-24T11:16:59.098Z,16960.00
2018-04-24T11:17:59.334Z,16896.00
2018-04-24T11:19:02.537Z,16512.00
2018-04-24T11:20:00.765Z,16000.00
2018-04-24T11:20:59.977Z,15460.00
2018-04-24T11:22:03.047Z,15032.00
2018-04-24T11:23:02.048Z,14684.00
2018-04-24T11:24:00.635Z,14864.00
2018-04-24T11:25:02.523Z,15680.00
2018-04-24T11:26:01.015Z,16096.00
2018-04-24T11:27:01.121Z,16384.00
2018-04-24T11:28:01.349Z,16320.00
2018-04-24T11:29:01.569Z,16224.00
2018-04-24T11:30:03.526Z,16288.00
2018-04-24T11:31:02.008Z,16224.00
2018-04-24T11:32:02.226Z,14100.00
2018-04-24T11:33:02.450Z,13684.00
2018-04-24T11:34:02.707Z,13576.00
2018-04-24T11:35:04.527Z,13496.00
2018-04-24T11:36:03.199Z,13344.00
2018-04-24T11:37:03.340Z,13360.00
2018-04-24T11:38:05.533Z,13152.00
2018-04-24T11:39:03.756Z,12672.00
2018-04-24T11:40:05.541Z,12636.00
2018-04-24T11:41:06.026Z,12732.00
2018-04-24T11:42:04.276Z,12672.00
2018-04-24T11:43:04.501Z,12708.00
2018-04-24T11:44:04.799Z,12596.00
2018-04-24T11:45:04.941Z,12676.00
2018-04-24T11:46:05.151Z,12988.00
2018-04-24T11:47:05.377Z,11992.00
2018-04-24T11:48:07.528Z,11440.00
2018-04-24T11:49:08.536Z,11424.00
2018-04-24T11:50:05.885Z,11732.00
2018-04-24T11:51:06.102Z,11620.00
2018-04-24T11:52:06.319Z,11668.00
2018-04-24T11:53:06.559Z,11700.00
2018-04-24T11:54:06.764Z,11724.00
2018-04-24T11:55:08.527Z,11872.00
2018-04-24T11:56:07.129Z,12052.00
2018-04-24T11:57:07.366Z,12400.00
2018-04-24T11:58:07.561Z,13284.00
2018-04-24T11:59:09.534Z,13840.00
2018-04-24T12:00:07.998Z,13796.00
2018-04-24T12:01:08.218Z,13860.00
2018-04-24T12:02:08.450Z,13796.00
2018-04-24T12:03:08.655Z,13836.00
2018-04-24T12:04:08.884Z,13768.00
2018-04-24T12:05:09.108Z,14180.00
2018-04-24T12:06:09.370Z,14728.00
2018-04-24T12:07:09.554Z,16064.00
2018-04-24T12:08:09.784Z,16736.00
2018-04-24T12:09:09.993Z,16480.00
2018-04-24T12:10:10.220Z,15232.00
2018-04-24T12:11:14.037Z,14732.00
2018-04-24T12:12:10.629Z,14876.00
2018-04-24T12:13:10.839Z,14432.00
2018-04-24T12:14:11.069Z,13044.00
2018-04-24T12:15:11.289Z,12340.00
2018-04-24T12:16:11.510Z,11500.00
2018-04-24T12:17:13.535Z,11024.00
2018-04-24T12:18:11.868Z,10808.00
2018-04-24T12:19:12.085Z,10480.00
2018-04-24T12:20:12.307Z,10032.00
2018-04-24T12:21:12.558Z,9624.00
2018-04-24T12:22:14.547Z,9336.00
2018-04-24T12:23:13.004Z,9292.00
2018-04-24T12:24:13.218Z,9480.00
2018-04-24T12:25:13.431Z,9824.00
2018-04-24T12:26:13.662Z,10316.00
2018-04-24T12:27:13.883Z,11124.00
2018-04-24T12:28:14.118Z,12144.00
2018-04-24T12:29:14.328Z,13056.00
2018-04-24T12:30:14.544Z,13708.00
2018-04-24T12:31:14.774Z,13936.00
2018-04-24T12:32:15.004Z,14236.00
2018-04-24T12:33:15.206Z,15332.00
2018-04-24T12:34:15.422Z,16288.00
2018-04-24T12:35:15.644Z,17472.00
2018-04-24T12:36:15.895Z,19712.00
2018-04-24T12:37:16.092Z,21664.00
2018-04-24T12:38:16.303Z,18816.00
2018-04-24T12:39:16.515Z,18432.00
2018-04-24T12:40:16.729Z,19392.00
2018-04-24T12:41:17.431Z,23040.00
2018-04-24T12:42:19.293Z,21760.00
2018-04-24T12:43:17.493Z,24192.00
2018-04-24T12:44:19.160Z,20896.00
2018-04-24T12:45:17.832Z,22976.00
2018-04-24T12:46:17.887Z,24704.00
2018-04-24T12:47:18.048Z,22272.00
2018-04-24T12:48:18.232Z,19328.00
2018-04-24T12:49:18.475Z,17472.00
2018-04-24T12:50:18.674Z,16512.00
2018-04-24T12:51:18.898Z,17856.00
2018-04-24T12:52:19.149Z,17472.00
2018-04-24T12:53:21.052Z,17568.00
2018-04-24T12:54:19.531Z,17504.00
2018-04-24T12:55:19.758Z,16864.00
2018-04-24T12:56:21.543Z,15612.00
2018-04-24T12:57:20.136Z,14744.00
2018-04-24T12:58:24.215Z,14024.00
2018-04-24T12:59:20.555Z,13856.00
2018-04-24T13:00:20.838Z,13952.00
2018-04-24T13:01:20.973Z,14948.00
2018-04-24T13:02:21.163Z,14984.00
2018-04-24T13:03:21.372Z,14708.00
2018-04-24T13:04:29.587Z,15212.00
2018-04-24T13:05:21.978Z,17536.00
2018-04-24T13:06:21.948Z,17984.00
2018-04-24T13:07:22.166Z,19552.00
2018-04-24T13:08:22.387Z,20000.00
2018-04-24T13:09:22.594Z,20096.00
2018-04-24T13:10:22.834Z,21760.00
2018-04-24T13:11:23.049Z,22464.00
2018-04-24T13:12:23.272Z,21952.00
2018-04-24T13:13:23.489Z,23008.00
2018-04-24T13:14:23.725Z,25120.00
2018-04-24T13:15:23.950Z,24704.00
2018-04-24T13:16:24.168Z,25824.00
2018-04-24T13:17:26.043Z,24640.00
2018-04-24T13:18:28.568Z,24288.00
2018-04-24T13:19:24.882Z,23200.00
2018-04-24T13:20:25.106Z,22144.00
2018-04-24T13:21:25.898Z,21792.00
2018-04-24T13:22:25.484Z,21664.00
2018-04-24T13:23:27.549Z,21440.00
2018-04-24T13:24:26.082Z,21152.00
2018-04-24T13:25:26.158Z,20832.00
2018-04-24T13:26:26.344Z,20256.00
2018-04-24T13:27:30.579Z,19744.00
2018-04-24T13:28:28.541Z,19168.00
2018-04-24T13:29:27.012Z,18816.00
2018-04-24T13:30:33.047Z,18656.00
2018-04-24T13:31:27.379Z,18656.00
2018-04-24T13:32:27.601Z,18528.00
2018-04-24T13:33:29.542Z,18176.00
2018-04-24T13:34:28.011Z,17760.00
2018-04-24T13:35:28.242Z,17696.00
2018-04-24T13:36:30.041Z,17632.00
2018-04-24T13:37:28.634Z,17792.00
2018-04-24T13:38:29.825Z,18176.00
2018-04-24T13:39:31.039Z,18144.00
2018-04-24T13:40:31.038Z,18112.00
2018-04-24T13:41:29.404Z,17792.00
2018-04-24T13:42:29.549Z,17856.00
2018-04-24T13:43:29.724Z,17728.00
2018-04-24T13:44:31.545Z,17376.00
2018-04-24T13:45:30.184Z,17056.00
2018-04-24T13:46:38.036Z,16704.00
2018-04-24T13:47:33.050Z,16544.00
2018-04-24T13:48:33.539Z,16544.00
2018-04-24T13:49:30.874Z,16608.00
2018-04-24T13:50:31.111Z,16704.00
2018-04-24T13:51:31.343Z,16832.00
2018-04-24T13:52:31.561Z,17056.00
2018-04-24T13:53:31.796Z,17056.00
2018-04-24T13:54:31.998Z,17152.00
2018-04-24T13:55:32.243Z,16960.00
2018-04-24T13:56:32.443Z,16832.00
2018-04-24T13:57:33.683Z,16704.00
2018-04-24T13:58:32.837Z,16480.00
2018-04-24T13:59:32.944Z,16384.00
2018-04-24T14:00:33.170Z,16320.00
2018-04-24T14:01:33.402Z,16096.00
2018-04-24T14:02:37.547Z,16160.00
2018-04-24T14:03:37.543Z,16064.00
2018-04-24T14:04:33.899Z,16000.00
2018-04-24T14:05:35.165Z,16032.00
2018-04-24T14:06:36.076Z,15968.00
2018-04-24T14:07:34.504Z,15632.00
2018-04-24T14:08:34.722Z,15392.00
2018-04-24T14:09:34.953Z,15204.00
2018-04-24T14:10:35.175Z,15124.00
2018-04-24T14:11:37.043Z,15120.00
2018-04-24T14:12:35.683Z,15116.00
2018-04-24T14:13:35.862Z,15100.00
2018-04-24T14:14:36.077Z,15032.00
2018-04-24T14:15:36.318Z,14844.00
2018-04-24T14:16:36.553Z,14720.00
2018-04-24T14:17:38.543Z,14596.00
2018-04-24T14:18:36.880Z,14380.00
2018-04-24T14:19:37.110Z,14344.00
2018-04-24T14:20:40.043Z,14252.00
2018-04-24T14:21:40.228Z,14188.00
2018-04-24T14:22:39.549Z,14180.00
2018-04-24T14:23:39.553Z,14040.00
2018-04-24T14:24:39.539Z,13848.00
2018-04-24T14:25:38.139Z,13744.00
2018-04-24T14:26:40.044Z,13648.00
2018-04-24T14:27:38.511Z,13596.00
2018-04-24T14:28:38.739Z,13616.00
2018-04-24T14:29:38.958Z,13684.00
2018-04-24T14:30:39.172Z,13768.00
2018-04-24T14:31:39.396Z,13684.00
2018-04-24T14:32:39.619Z,13804.00
2018-04-24T14:33:39.845Z,13784.00
2018-04-24T14:34:40.063Z,13756.00
2018-04-24T14:35:42.102Z,13632.00
2018-04-24T14:36:42.042Z,13748.00
2018-04-24T14:37:40.631Z,13824.00
2018-04-24T14:38:40.857Z,13780.00
2018-04-24T14:39:41.122Z,13784.00
2018-04-24T14:40:41.319Z,13760.00
2018-04-24T14:41:41.538Z,13792.00
2018-04-24T14:42:41.787Z,13772.00
2018-04-24T14:43:41.987Z,13768.00
2018-04-24T14:44:42.222Z,13532.00
2018-04-24T14:45:42.329Z,13580.00
2018-04-24T14:46:42.540Z,13544.00
2018-04-24T14:47:42.754Z,13424.00
2018-04-24T14:48:42.967Z,13364.00
2018-04-24T14:49:43.187Z,13332.00
2018-04-24T14:50:43.396Z,13360.00
2018-04-24T14:51:43.618Z,13296.00
2018-04-24T14:52:43.828Z,13220.00
2018-04-24T14:53:46.569Z,13112.00
2018-04-24T14:54:44.272Z,12916.00
2018-04-24T14:55:44.492Z,12716.00
2018-04-24T14:56:44.713Z,12148.00
2018-04-24T14:57:44.931Z,11788.00
2018-04-24T14:58:45.142Z,12248.00
2018-04-24T14:59:45.359Z,12104.00
2018-04-24T15:00:45.583Z,11756.00
2018-04-24T15:01:45.799Z,11784.00
2018-04-24T15:02:46.012Z,11492.00
2018-04-24T15:03:46.230Z,11728.00
2018-04-24T15:04:48.044Z,11684.00
2018-04-24T15:05:46.648Z,11612.00
2018-04-24T15:06:46.868Z,11464.00
2018-04-24T15:07:49.049Z,11176.00
2018-04-24T15:08:47.274Z,10896.00
2018-04-24T15:09:47.480Z,10756.00
2018-04-24T15:10:47.715Z,10156.00
2018-04-24T15:11:47.934Z,10184.00
2018-04-24T15:12:48.152Z,10312.00
2018-04-24T15:13:48.365Z,10648.00
2018-04-24T15:14:48.592Z,10744.00
2018-04-24T15:15:50.561Z,9964.00
2018-04-24T15:16:49.032Z,9880.00
2018-04-24T15:17:51.064Z,9948.00
2018-04-24T15:18:49.398Z,10136.00
2018-04-24T15:19:49.612Z,9496.00
2018-04-24T15:20:49.845Z,9788.00
2018-04-24T15:21:50.057Z,9176.00
2018-04-24T15:22:50.280Z,8872.00
2018-04-24T15:23:50.508Z,8644.00
2018-04-24T15:24:50.717Z,8584.00
2018-04-24T15:25:50.996Z,8576.00
2018-04-24T15:26:51.175Z,8952.00
2018-04-24T15:27:53.055Z,8812.00
2018-04-24T15:28:51.532Z,8856.00
2018-04-24T15:29:51.748Z,9052.00
2018-04-24T15:30:51.958Z,9092.00
2018-04-24T15:31:52.182Z,9652.00
2018-04-24T15:32:52.417Z,9308.00
2018-04-24T15:33:52.649Z,9416.00
2018-04-24T15:34:52.913Z,9288.00
2018-04-24T15:35:53.103Z,8916.00
2018-04-24T15:36:53.322Z,8904.00
2018-04-24T15:37:53.577Z,9480.00
2018-04-24T15:38:53.754Z,9588.00
2018-04-24T15:39:56.563Z,9896.00
2018-04-24T15:40:54.156Z,9392.00
2018-04-24T15:41:54.374Z,9940.00
2018-04-24T15:42:57.573Z,10040.00
2018-04-24T15:43:54.828Z,10512.00
2018-04-24T15:44:55.007Z,10760.00
2018-04-24T15:45:55.233Z,10496.00
2018-04-24T15:46:55.447Z,10220.00
2018-04-24T15:47:59.611Z,10252.00
2018-04-24T15:48:55.809Z,9732.00
2018-04-24T15:49:56.021Z,10140.00
2018-04-24T15:50:56.245Z,9420.00
2018-04-24T15:51:56.460Z,9356.00
2018-04-24T15:52:56.680Z,9256.00
2018-04-24T15:53:56.897Z,9132.00
2018-04-24T15:54:57.192Z,9432.00
2018-04-24T15:55:59.046Z,9752.00
2018-04-24T15:56:59.048Z,10440.00
2018-04-24T15:57:57.637Z,10136.00
2018-04-24T15:58:57.871Z,10128.00
2018-04-24T15:59:58.091Z,10004.00
2018-04-24T16:00:58.303Z,9772.00
2018-04-24T16:01:58.521Z,9572.00
2018-04-24T16:02:58.787Z,9384.00
2018-04-24T16:03:58.963Z,9016.00
2018-04-24T16:05:01.051Z,7696.00
2018-04-24T16:05:59.396Z,6908.00
2018-04-24T16:07:01.572Z,6436.00
2018-04-24T16:07:59.800Z,6024.00
2018-04-24T16:08:59.912Z,5860.00
2018-04-24T16:10:02.057Z,6112.00
2018-04-24T16:11:00.256Z,5272.00
2018-04-24T16:12:00.471Z,5568.00
2018-04-24T16:13:00.690Z,6412.00
2018-04-24T16:14:00.897Z,6436.00
2018-04-24T16:15:01.125Z,6376.00
2018-04-24T16:16:01.341Z,6424.00
2018-04-24T16:17:01.559Z,6584.00
2018-04-24T16:18:01.787Z,6424.00
2018-04-24T16:19:02.010Z,5204.00
2018-04-24T16:20:02.228Z,5376.00
2018-04-24T16:21:02.457Z,6840.00
2018-04-24T16:22:02.670Z,6780.00
2018-04-24T16:23:02.908Z,5680.00
2018-04-24T16:24:03.630Z,5544.00
2018-04-24T16:25:03.322Z,5532.00
2018-04-24T16:26:03.399Z,5664.00
2018-04-24T16:27:05.564Z,5728.00
2018-04-24T16:28:03.777Z,5588.00
2018-04-24T16:29:03.989Z,5432.00
2018-04-24T16:30:04.227Z,4996.00
2018-04-24T16:31:04.438Z,4760.00
2018-04-24T16:32:04.638Z,4564.00
2018-04-24T16:33:04.872Z,4332.00
2018-04-24T16:34:05.087Z,4068.00
2018-04-24T16:35:05.302Z,3796.00
2018-04-24T16:36:05.522Z,3532.00
2018-04-24T16:37:05.741Z,3376.00
2018-04-24T16:38:08.553Z,3256.00
2018-04-24T16:39:06.156Z,3120.00
2018-04-24T16:40:06.376Z,2960.00
2018-04-24T16:41:06.650Z,2884.00
2018-04-24T16:42:06.813Z,2872.00
2018-04-24T16:43:07.036Z,2848.00
2018-04-24T16:44:07.253Z,2840.00
2018-04-24T16:45:07.467Z,2804.00
2018-04-24T16:46:07.678Z,2692.00
2018-04-24T16:47:07.895Z,2540.00
2018-04-24T16:48:08.119Z,2396.00
2018-04-24T16:49:08.328Z,2336.00
2018-04-24T16:50:08.561Z,2316.00
2018-04-24T16:51:08.789Z,2316.00
2018-04-24T16:52:09.008Z,2260.00
2018-04-24T16:53:11.062Z,2160.00
2018-04-24T16:54:09.385Z,2104.00
2018-04-24T16:55:11.556Z,2068.00
2018-04-24T16:56:09.803Z,2020.00
2018-04-24T16:57:09.977Z,2008.00
2018-04-24T16:58:10.205Z,2056.00
2018-04-24T16:59:10.423Z,2168.00
2018-04-24T17:00:10.636Z,2264.00
2018-04-24T17:01:10.860Z,2332.00
2018-04-24T17:02:11.076Z,2380.00
2018-04-24T17:03:11.286Z,2444.00
2018-04-24T17:04:11.506Z,2540.00
2018-04-24T17:05:11.717Z,2680.00
2018-04-24T17:06:12.046Z,2840.00
2018-04-24T17:07:12.170Z,2976.00
2018-04-24T17:08:14.071Z,3068.00
2018-04-24T17:09:12.532Z,3168.00
2018-04-24T17:10:14.557Z,3256.00
2018-04-24T17:11:12.886Z,3316.00
2018-04-24T17:12:15.068Z,3360.00
2018-04-24T17:13:13.303Z,3392.00
2018-04-24T17:14:15.054Z,3420.00
2018-04-24T17:15:13.654Z,3424.00
2018-04-24T17:16:15.563Z,3388.00
2018-04-24T17:17:14.013Z,3360.00
2018-04-24T17:18:14.321Z,3364.00
2018-04-24T17:19:14.405Z,3388.00
2018-04-24T17:20:14.724Z,3376.00
2018-04-24T17:21:14.825Z,3360.00
2018-04-24T17:22:16.554Z,3336.00
2018-04-24T17:23:18.085Z,3308.00
2018-04-24T17:24:15.425Z,3264.00
2018-04-24T17:25:15.617Z,3252.00
2018-04-24T17:26:15.831Z,3240.00
2018-04-24T17:27:16.045Z,3224.00
2018-04-24T17:28:16.253Z,3196.00
2018-04-24T17:29:16.471Z,3164.00
2018-04-24T17:30:16.706Z,3140.00
2018-04-24T17:31:18.555Z,3112.00
2018-04-24T17:32:17.151Z,3056.00
2018-04-24T17:33:17.383Z,2988.00
2018-04-24T17:34:19.581Z,2920.00
2018-04-24T17:35:17.793Z,2860.00
2018-04-24T17:36:18.006Z,2796.00
2018-04-24T17:37:20.056Z,2744.00
2018-04-24T17:38:18.390Z,2692.00
2018-04-24T17:39:18.615Z,2620.00
2018-04-24T17:40:18.825Z,2544.00
2018-04-24T17:41:19.036Z,2456.00
2018-04-24T17:42:19.272Z,2356.00
2018-04-24T17:43:19.486Z,2276.00
2018-04-24T17:44:19.699Z,2208.00
2018-04-24T17:45:19.922Z,2144.00
2018-04-24T17:46:20.134Z,2092.00
2018-04-24T17:47:20.353Z,2048.00
2018-04-24T17:48:20.565Z,1996.00
2018-04-24T17:49:20.782Z,1928.00
2018-04-24T17:50:21.007Z,1844.00
2018-04-24T17:51:21.226Z,1760.00
2018-04-24T17:52:23.058Z,1676.00
2018-04-24T17:53:21.642Z,1600.00
2018-04-24T17:54:21.864Z,1512.00
2018-04-24T17:55:22.085Z,1424.00
2018-04-24T17:56:22.311Z,1328.00
2018-04-24T17:57:22.524Z,1232.00
2018-04-24T17:58:22.738Z,1144.00
2018-04-24T17:59:22.966Z,1072.00